createdAt,value
2023-09-27T00:00:52.430Z,15.31
2023-09-27T00:03:19.093Z,15.30
2023-09-27T00:05:46.715Z,15.23
2023-09-27T00:08:13.661Z,15.23
2023-09-27T00:10:40.409Z,15.15
2023-09-27T00:13:07.130Z,15.17
2023-09-27T00:15:33.814Z,15.05
2023-09-27T00:18:00.591Z,14.96
2023-09-27T00:20:27.334Z,15.01
2023-09-27T00:22:56.044Z,14.98
2023-09-27T00:25:22.931Z,14.97
2023-09-27T00:27:49.786Z,14.98
2023-09-27T00:30:17.611Z,14.75
2023-09-27T00:32:47.769Z,14.90
2023-09-27T00:35:23.501Z,14.92
2023-09-27T00:37:52.581Z,14.90
2023-09-27T00:40:22.483Z,14.86
2023-09-27T00:42:49.450Z,14.84
2023-09-27T00:45:17.057Z,14.85
2023-09-27T00:47:44.036Z,14.81
2023-09-27T00:50:11.046Z,14.77
2023-09-27T00:52:40.943Z,14.79
2023-09-27T00:55:10.934Z,14.80
2023-09-27T00:57:37.423Z,14.78
2023-09-27T01:00:05.293Z,14.79
2023-09-27T01:02:32.186Z,14.78
2023-09-27T01:04:59.598Z,14.71
2023-09-27T01:07:26.285Z,14.71
2023-09-27T01:09:53.002Z,14.71
2023-09-27T01:12:39.767Z,14.72
2023-09-27T01:15:26.881Z,14.70
2023-09-27T01:18:13.341Z,14.62
2023-09-27T01:20:59.961Z,14.54
2023-09-27T01:23:50.378Z,14.48
2023-09-27T01:26:38.626Z,14.53
2023-09-27T01:29:05.760Z,14.38
2023-09-27T01:31:33.048Z,14.47
2023-09-27T01:33:59.769Z,14.35
2023-09-27T01:36:26.540Z,14.36
2023-09-27T01:38:53.332Z,14.34
2023-09-27T01:41:20.085Z,14.33
2023-09-27T01:43:46.647Z,14.28
2023-09-27T01:46:13.462Z,14.26
2023-09-27T01:48:40.637Z,14.27
2023-09-27T01:51:07.168Z,14.20
2023-09-27T01:53:33.755Z,14.26
2023-09-27T01:56:00.267Z,14.24
2023-09-27T01:58:27.145Z,14.15
2023-09-27T02:00:54.533Z,14.22
2023-09-27T02:03:21.229Z,14.10
2023-09-27T02:05:48.368Z,14.10
2023-09-27T02:08:16.735Z,14.04
2023-09-27T02:10:43.340Z,14.00
2023-09-27T02:13:09.877Z,14.08
2023-09-27T02:15:36.417Z,14.10
2023-09-27T02:18:03.158Z,14.10
2023-09-27T02:20:31.266Z,14.11
2023-09-27T02:22:57.890Z,14.18
2023-09-27T02:25:24.585Z,14.22
2023-09-27T02:27:51.316Z,14.26
2023-09-27T02:30:18.029Z,14.25
2023-09-27T02:32:44.983Z,14.23
2023-09-27T02:35:14.382Z,14.26
2023-09-27T02:37:42.442Z,14.35
2023-09-27T02:40:14.024Z,14.28
2023-09-27T02:42:45.374Z,14.29
2023-09-27T02:45:12.831Z,14.20
2023-09-27T02:47:41.116Z,14.20
2023-09-27T02:50:12.009Z,14.03
2023-09-27T02:52:41.654Z,14.11
2023-09-27T02:55:12.235Z,14.12
2023-09-27T02:57:39.429Z,14.04
2023-09-27T03:00:07.594Z,14.04
2023-09-27T03:02:34.900Z,14.06
2023-09-27T03:05:05.724Z,14.02
2023-09-27T03:07:34.934Z,14.10
2023-09-27T03:10:11.718Z,14.08
2023-09-27T03:12:40.045Z,14.06
2023-09-27T03:15:12.614Z,14.01
2023-09-27T03:17:40.877Z,13.99
2023-09-27T03:20:16.932Z,13.97
2023-09-27T03:22:44.107Z,13.88
2023-09-27T03:25:11.203Z,13.90
2023-09-27T03:27:38.049Z,13.96
2023-09-27T03:30:06.960Z,13.90
2023-09-27T03:32:36.615Z,13.86
2023-09-27T03:35:04.220Z,13.84
2023-09-27T03:37:31.632Z,13.73
2023-09-27T03:39:58.287Z,13.78
2023-09-27T03:42:25.042Z,13.78
2023-09-27T03:44:51.919Z,13.77
2023-09-27T03:47:18.846Z,13.74
2023-09-27T03:49:45.387Z,13.71
2023-09-27T03:52:12.767Z,13.71
2023-09-27T03:54:39.445Z,13.63
2023-09-27T03:57:06.264Z,13.62
2023-09-27T03:59:33.988Z,13.55
2023-09-27T04:02:00.799Z,13.53
2023-09-27T04:04:28.332Z,13.47
2023-09-27T04:06:55.068Z,13.45
2023-09-27T04:09:22.199Z,13.40
2023-09-27T04:11:48.988Z,13.34
2023-09-27T04:14:15.784Z,13.32
2023-09-27T04:16:43.164Z,13.30
2023-09-27T04:19:09.937Z,13.25
2023-09-27T04:21:37.505Z,13.22
2023-09-27T04:24:05.497Z,13.19
2023-09-27T04:26:32.204Z,13.05
2023-09-27T04:28:59.069Z,13.11
2023-09-27T04:31:25.784Z,13.07
2023-09-27T04:33:52.602Z,13.01
2023-09-27T04:36:19.467Z,12.89
2023-09-27T04:38:46.924Z,12.87
2023-09-27T04:41:18.869Z,12.87
2023-09-27T04:43:45.997Z,12.88
2023-09-27T04:46:14.911Z,12.91
2023-09-27T04:48:41.959Z,12.86
2023-09-27T04:51:08.661Z,12.88
2023-09-27T04:53:38.251Z,12.93
2023-09-27T04:56:08.777Z,12.94
2023-09-27T04:58:37.590Z,12.88
2023-09-27T05:01:07.230Z,12.96
2023-09-27T05:03:34.472Z,12.95
2023-09-27T05:06:01.236Z,12.98
2023-09-27T05:08:28.236Z,12.98
2023-09-27T05:10:56.108Z,13.01
2023-09-27T05:13:23.493Z,13.05
2023-09-27T05:15:50.899Z,13.08
2023-09-27T05:18:17.960Z,13.08
2023-09-27T05:20:47.676Z,13.07
2023-09-27T05:23:14.723Z,13.09
2023-09-27T05:25:42.521Z,13.11
2023-09-27T05:28:10.388Z,13.07
2023-09-27T05:30:41.899Z,13.06
2023-09-27T05:33:23.902Z,13.05
2023-09-27T05:35:53.954Z,13.02
2023-09-27T05:38:21.793Z,13.01
2023-09-27T05:40:48.594Z,13.03
2023-09-27T05:43:15.419Z,13.02
2023-09-27T05:45:45.605Z,13.01
2023-09-27T05:48:15.348Z,13.05
2023-09-27T05:50:45.967Z,13.02
2023-09-27T05:53:13.576Z,12.98
2023-09-27T05:55:41.215Z,12.95
2023-09-27T05:58:08.029Z,12.88
2023-09-27T06:00:38.876Z,12.81
2023-09-27T06:03:05.995Z,12.83
2023-09-27T06:05:33.763Z,12.80
2023-09-27T06:08:01.089Z,12.82
2023-09-27T06:10:28.006Z,12.89
2023-09-27T06:12:54.967Z,12.89
2023-09-27T06:15:21.885Z,12.90
2023-09-27T06:17:50.142Z,12.95
2023-09-27T06:20:21.940Z,13.00
2023-09-27T06:22:54.142Z,13.03
2023-09-27T06:25:24.899Z,13.11
2023-09-27T06:27:52.883Z,13.16
2023-09-27T06:30:21.744Z,13.23
2023-09-27T06:32:49.715Z,13.21
2023-09-27T06:35:17.041Z,13.29
2023-09-27T06:37:45.657Z,13.33
2023-09-27T06:40:17.523Z,13.36
2023-09-27T06:42:45.271Z,13.38
2023-09-27T06:45:12.798Z,13.48
2023-09-27T06:47:42.218Z,13.56
2023-09-27T06:50:10.608Z,13.60
2023-09-27T06:52:40.768Z,13.71
2023-09-27T06:55:11.803Z,13.84
2023-09-27T06:57:41.869Z,13.94
2023-09-27T07:00:14.400Z,14.06
2023-09-27T07:02:43.423Z,14.13
2023-09-27T07:05:10.546Z,14.27
2023-09-27T07:07:37.229Z,14.40
2023-09-27T07:10:04.055Z,14.56
2023-09-27T07:12:32.077Z,14.60
2023-09-27T07:14:59.247Z,14.68
2023-09-27T07:17:26.241Z,14.77
2023-09-27T07:19:56.882Z,14.91
2023-09-27T07:22:24.301Z,14.84
2023-09-27T07:24:50.829Z,14.87
2023-09-27T07:27:17.480Z,15.03
2023-09-27T07:29:44.079Z,15.07
2023-09-27T07:32:11.397Z,15.45
2023-09-27T07:34:38.840Z,15.49
2023-09-27T07:37:05.983Z,15.41
2023-09-27T07:39:33.333Z,15.53
2023-09-27T07:42:00.597Z,15.76
2023-09-27T07:44:29.540Z,15.85
2023-09-27T07:46:56.065Z,15.98
2023-09-27T07:49:24.188Z,15.96
2023-09-27T07:51:51.030Z,16.20
2023-09-27T07:54:17.776Z,15.99
2023-09-27T07:56:45.079Z,16.15
2023-09-27T07:59:11.757Z,16.56
2023-09-27T08:01:38.794Z,16.63
2023-09-27T08:04:11.883Z,16.78
2023-09-27T08:06:40.006Z,17.04
2023-09-27T08:09:14.773Z,17.22
2023-09-27T08:11:48.167Z,17.48
2023-09-27T08:14:17.470Z,17.54
2023-09-27T08:16:45.719Z,17.71
2023-09-27T08:19:13.779Z,17.88
2023-09-27T08:21:40.376Z,17.99
2023-09-27T08:24:07.900Z,18.09
2023-09-27T08:26:35.973Z,18.07
2023-09-27T08:29:02.567Z,18.32
2023-09-27T08:31:31.516Z,18.20
2023-09-27T08:33:58.356Z,18.32
2023-09-27T08:36:25.048Z,18.63
2023-09-27T08:38:51.848Z,18.39
2023-09-27T08:41:19.550Z,18.62
2023-09-27T08:43:46.952Z,18.96
2023-09-27T08:46:13.498Z,18.60
2023-09-27T08:48:40.554Z,18.91
2023-09-27T08:51:08.080Z,19.09
2023-09-27T08:53:39.392Z,18.94
2023-09-27T08:56:07.769Z,19.21
2023-09-27T08:58:36.194Z,19.26
2023-09-27T09:01:05.288Z,18.98
2023-09-27T09:03:33.282Z,19.45
2023-09-27T09:06:00.181Z,19.34
2023-09-27T09:08:42.630Z,19.39
2023-09-27T09:11:12.065Z,19.65
2023-09-27T09:13:57.767Z,20.19
2023-09-27T09:16:25.021Z,19.82
2023-09-27T09:18:56.677Z,20.20
2023-09-27T09:21:26.316Z,20.38
2023-09-27T09:23:53.093Z,20.49
2023-09-27T09:26:31.047Z,20.75
2023-09-27T09:29:01.090Z,20.26
2023-09-27T09:31:29.656Z,20.09
2023-09-27T09:34:08.988Z,20.37
2023-09-27T09:36:36.823Z,20.68
2023-09-27T09:39:08.071Z,20.32
2023-09-27T09:41:51.105Z,21.03
2023-09-27T09:44:21.154Z,20.76
2023-09-27T09:46:48.236Z,21.58
2023-09-27T09:49:18.766Z,22.06
2023-09-27T09:51:48.853Z,20.81
2023-09-27T09:54:35.555Z,21.59
2023-09-27T09:57:11.016Z,21.69
2023-09-27T09:59:59.083Z,22.02
2023-09-27T10:02:28.642Z,21.97
2023-09-27T10:04:58.064Z,22.52
2023-09-27T10:07:25.075Z,22.48
2023-09-27T10:09:53.416Z,22.18
2023-09-27T10:12:25.088Z,21.55
2023-09-27T10:14:53.082Z,22.32
2023-09-27T10:17:24.356Z,22.98
2023-09-27T10:20:13.920Z,22.77
2023-09-27T10:22:44.074Z,22.42
2023-09-27T10:25:31.474Z,23.43
2023-09-27T10:28:05.718Z,24.01
2023-09-27T10:30:41.592Z,23.27
2023-09-27T10:33:17.868Z,23.32
2023-09-27T10:35:46.296Z,24.00
2023-09-27T10:38:13.557Z,24.60
2023-09-27T10:40:47.584Z,24.64
2023-09-27T10:43:35.979Z,24.21
2023-09-27T10:46:06.221Z,24.97
2023-09-27T10:48:32.810Z,25.20
2023-09-27T10:50:59.601Z,25.07
2023-09-27T10:53:27.939Z,25.44
2023-09-27T10:55:54.820Z,25.07
2023-09-27T10:58:21.666Z,24.30
2023-09-27T11:00:52.375Z,24.34
2023-09-27T11:03:19.623Z,24.67
2023-09-27T11:05:46.482Z,25.00
2023-09-27T11:08:20.743Z,24.94
2023-09-27T11:10:48.591Z,25.50
2023-09-27T11:13:15.298Z,25.60
2023-09-27T11:15:43.129Z,24.70
2023-09-27T11:18:11.236Z,25.66
2023-09-27T11:20:41.891Z,25.50
2023-09-27T11:23:08.744Z,26.07
2023-09-27T11:25:44.051Z,26.89
2023-09-27T11:28:16.496Z,26.43
2023-09-27T11:30:43.066Z,26.34
2023-09-27T11:33:09.788Z,27.06
2023-09-27T11:35:36.941Z,26.78
2023-09-27T11:38:14.512Z,26.84
2023-09-27T11:40:44.928Z,27.50
2023-09-27T11:43:13.231Z,27.04
2023-09-27T11:45:50.543Z,27.53
2023-09-27T11:48:31.663Z,27.61
2023-09-27T11:50:59.807Z,27.41
2023-09-27T11:53:26.468Z,26.33
2023-09-27T11:55:55.280Z,26.13
2023-09-27T11:58:22.146Z,26.50
2023-09-27T12:00:48.881Z,27.20
2023-09-27T12:03:15.584Z,26.14
2023-09-27T12:05:42.440Z,25.84
2023-09-27T12:08:09.681Z,26.40
2023-09-27T12:10:36.362Z,26.74
2023-09-27T12:13:03.746Z,27.13
2023-09-27T12:15:30.648Z,27.87
2023-09-27T12:17:57.371Z,27.66
2023-09-27T12:20:39.501Z,27.98
2023-09-27T12:23:10.237Z,28.50
2023-09-27T12:25:37.949Z,27.94
2023-09-27T12:28:04.977Z,28.64
2023-09-27T12:30:31.943Z,29.16
2023-09-27T12:32:58.488Z,29.27
2023-09-27T12:35:25.156Z,29.71
2023-09-27T12:37:51.750Z,29.15
2023-09-27T12:40:18.389Z,29.53
2023-09-27T12:42:44.998Z,28.91
2023-09-27T12:45:11.958Z,29.68
2023-09-27T12:47:38.799Z,29.31
2023-09-27T12:50:07.540Z,29.50
2023-09-27T12:52:34.513Z,30.14
2023-09-27T12:55:01.065Z,29.39
2023-09-27T12:57:27.702Z,29.85
2023-09-27T12:59:54.230Z,30.59
2023-09-27T13:02:21.701Z,31.00
2023-09-27T13:04:49.374Z,31.23
2023-09-27T13:07:18.135Z,30.08
2023-09-27T13:09:45.310Z,31.01
2023-09-27T13:12:11.808Z,31.21
2023-09-27T13:14:38.531Z,30.23
2023-09-27T13:17:05.094Z,28.81
2023-09-27T13:19:32.534Z,30.46
2023-09-27T13:21:59.464Z,31.58
2023-09-27T13:24:26.073Z,31.23
2023-09-27T13:26:52.754Z,32.14
2023-09-27T13:29:19.414Z,31.68
2023-09-27T13:31:46.382Z,32.24
2023-09-27T13:34:13.791Z,32.79
2023-09-27T13:36:41.415Z,31.75
2023-09-27T13:39:14.813Z,32.71
2023-09-27T13:41:42.775Z,32.90
2023-09-27T13:44:09.624Z,33.11
2023-09-27T13:46:36.482Z,32.99
2023-09-27T13:49:03.059Z,33.66
2023-09-27T13:51:30.812Z,33.07
2023-09-27T13:53:57.418Z,33.92
2023-09-27T13:56:24.075Z,33.47
2023-09-27T13:58:50.850Z,33.23
2023-09-27T14:01:17.411Z,33.90
2023-09-27T14:03:44.160Z,33.51
2023-09-27T14:06:10.888Z,33.74
2023-09-27T14:08:37.656Z,33.79
2023-09-27T14:11:04.283Z,33.31
2023-09-27T14:13:30.922Z,34.36
2023-09-27T14:15:57.584Z,34.80
2023-09-27T14:18:24.253Z,33.36
2023-09-27T14:20:51.960Z,34.73
2023-09-27T14:23:18.625Z,34.07
2023-09-27T14:25:45.252Z,34.81
2023-09-27T14:28:11.774Z,34.34
2023-09-27T14:30:41.539Z,35.44
2023-09-27T14:33:09.499Z,35.60
2023-09-27T14:38:09.477Z,35.43
2023-09-27T14:40:36.186Z,35.54
2023-09-27T14:43:02.920Z,35.47
2023-09-27T14:45:36.386Z,35.46
2023-09-27T14:48:05.463Z,35.51
2023-09-27T14:50:32.332Z,35.70
2023-09-27T14:52:59.366Z,35.71
2023-09-27T14:55:29.417Z,36.07
2023-09-27T14:57:57.539Z,35.77
2023-09-27T15:00:24.184Z,36.44
2023-09-27T15:02:51.429Z,35.98
2023-09-27T15:05:18.118Z,35.88
2023-09-27T15:07:44.837Z,36.12
2023-09-27T15:10:11.530Z,35.74
2023-09-27T15:12:38.880Z,36.13
2023-09-27T15:15:09.761Z,35.68
2023-09-27T15:17:43.929Z,36.33
2023-09-27T15:20:15.455Z,35.81
2023-09-27T15:22:42.524Z,35.98
2023-09-27T15:25:10.580Z,36.02
2023-09-27T15:27:37.277Z,35.62
2023-09-27T15:30:04.337Z,35.49
2023-09-27T15:32:31.078Z,35.53
2023-09-27T15:34:58.014Z,35.62
2023-09-27T15:37:24.803Z,35.52
2023-09-27T15:39:52.193Z,35.28
2023-09-27T15:42:18.698Z,35.22
2023-09-27T15:44:45.325Z,35.63
2023-09-27T15:47:15.540Z,35.19
2023-09-27T15:49:42.307Z,34.94
2023-09-27T15:52:09.910Z,34.32
2023-09-27T15:54:36.728Z,33.88
2023-09-27T15:57:03.577Z,33.53
2023-09-27T15:59:30.197Z,33.31
2023-09-27T16:01:57.649Z,33.97
2023-09-27T16:04:26.306Z,34.22
2023-09-27T16:06:54.589Z,34.24
2023-09-27T16:09:21.625Z,34.05
2023-09-27T16:11:49.348Z,33.44
2023-09-27T16:14:15.893Z,33.06
2023-09-27T16:16:42.525Z,32.42
2023-09-27T16:19:09.136Z,31.50
2023-09-27T16:21:35.668Z,30.76
2023-09-27T16:24:02.448Z,30.58
2023-09-27T16:26:29.020Z,30.24
2023-09-27T16:28:55.591Z,29.96
2023-09-27T16:31:22.734Z,29.43
2023-09-27T16:33:49.536Z,29.22
2023-09-27T16:36:17.847Z,29.00
2023-09-27T16:38:45.036Z,28.72
2023-09-27T16:41:13.567Z,28.49
2023-09-27T16:43:40.886Z,28.21
2023-09-27T16:46:08.488Z,27.95
2023-09-27T16:48:35.940Z,27.71
2023-09-27T16:51:02.861Z,27.48
2023-09-27T16:53:29.505Z,27.23
2023-09-27T16:55:56.339Z,26.92
2023-09-27T16:58:26.538Z,26.70
2023-09-27T17:00:53.354Z,26.69
2023-09-27T17:03:20.912Z,26.25
2023-09-27T17:05:47.978Z,26.16
2023-09-27T17:08:14.513Z,26.06
2023-09-27T17:10:41.616Z,25.97
2023-09-27T17:13:09.279Z,25.57
2023-09-27T17:15:35.804Z,25.55
2023-09-27T17:18:02.442Z,25.26
2023-09-27T17:20:29.270Z,24.97
2023-09-27T17:22:56.026Z,24.85
2023-09-27T17:25:22.822Z,24.75
2023-09-27T17:27:49.475Z,24.59
2023-09-27T17:30:16.741Z,24.61
2023-09-27T17:32:44.169Z,24.47
2023-09-27T17:35:11.279Z,24.21
2023-09-27T17:37:38.310Z,24.12
2023-09-27T17:40:08.801Z,23.93
2023-09-27T17:42:37.330Z,23.68
2023-09-27T17:45:06.243Z,23.51
2023-09-27T17:47:32.912Z,23.34
2023-09-27T17:49:59.661Z,23.44
2023-09-27T17:52:26.319Z,23.31
2023-09-27T17:54:53.188Z,23.27
2023-09-27T17:57:20.273Z,23.08
2023-09-27T17:59:46.964Z,23.03
2023-09-27T18:02:13.559Z,22.87
2023-09-27T18:04:40.522Z,22.70
2023-09-27T18:07:07.292Z,22.71
2023-09-27T18:09:37.144Z,22.59
2023-09-27T18:12:03.991Z,22.34
2023-09-27T18:14:30.725Z,22.45
2023-09-27T18:16:57.983Z,22.16
2023-09-27T18:19:24.799Z,21.81
2023-09-27T18:21:51.375Z,21.54
2023-09-27T18:24:18.016Z,21.39
2023-09-27T18:26:45.038Z,21.45
2023-09-27T18:29:11.627Z,21.28
2023-09-27T18:31:40.003Z,21.36
2023-09-27T18:34:06.883Z,21.18
2023-09-27T18:36:34.562Z,20.90
2023-09-27T18:39:01.433Z,20.90
2023-09-27T18:41:28.517Z,20.74
2023-09-27T18:43:55.447Z,20.52
2023-09-27T18:46:22.900Z,20.82
2023-09-27T18:48:51.497Z,20.69
2023-09-27T18:51:22.607Z,20.67
2023-09-27T18:53:50.452Z,20.33
2023-09-27T18:56:16.967Z,20.40
2023-09-27T18:58:43.768Z,20.20
2023-09-27T19:01:10.384Z,20.29
2023-09-27T19:03:37.171Z,20.37
2023-09-27T19:06:03.826Z,20.09
2023-09-27T19:08:30.495Z,20.05
2023-09-27T19:10:57.089Z,19.89
2023-09-27T19:13:23.806Z,19.69
2023-09-27T19:15:50.609Z,19.66
2023-09-27T19:18:17.217Z,19.60
2023-09-27T19:20:43.974Z,19.44
2023-09-27T19:23:10.669Z,19.59
2023-09-27T19:25:37.265Z,19.18
2023-09-27T19:28:04.069Z,19.26
2023-09-27T19:30:34.117Z,19.20
2023-09-27T19:33:00.766Z,19.03
2023-09-27T19:35:29.522Z,19.23
2023-09-27T19:37:56.082Z,19.14
2023-09-27T19:40:23.998Z,19.06
2023-09-27T19:42:51.048Z,18.74
2023-09-27T19:45:17.662Z,18.72
2023-09-27T19:47:44.273Z,18.73
2023-09-27T19:50:11.121Z,18.78
2023-09-27T19:52:38.852Z,18.57
2023-09-27T19:55:10.004Z,18.63
2023-09-27T19:57:37.128Z,18.52
2023-09-27T20:00:08.009Z,18.47
2023-09-27T20:02:35.753Z,18.52
2023-09-27T20:05:02.271Z,18.41
2023-09-27T20:07:29.102Z,18.23
2023-09-27T20:09:55.633Z,18.26
2023-09-27T20:12:22.413Z,18.26
2023-09-27T20:14:49.360Z,18.28
2023-09-27T20:17:15.898Z,18.29
2023-09-27T20:19:42.541Z,18.18
2023-09-27T20:22:10.192Z,18.21
2023-09-27T20:24:39.114Z,18.18
2023-09-27T20:27:06.104Z,18.18
2023-09-27T20:29:33.342Z,18.24
2023-09-27T20:32:00.009Z,18.13
2023-09-27T20:34:26.618Z,18.05
2023-09-27T20:36:53.255Z,18.02
2023-09-27T20:39:20.801Z,17.80
2023-09-27T20:41:47.290Z,17.80
2023-09-27T20:44:14.243Z,17.71
2023-09-27T20:46:40.900Z,17.73
2023-09-27T20:49:07.623Z,17.65
2023-09-27T20:51:34.205Z,17.53
2023-09-27T20:54:00.699Z,17.54
2023-09-27T20:56:27.255Z,17.47
2023-09-27T20:58:54.894Z,17.44
2023-09-27T21:01:29.255Z,17.45
2023-09-27T21:03:56.410Z,17.28
2023-09-27T21:06:30.533Z,17.30
2023-09-27T21:08:58.800Z,17.28
2023-09-27T21:11:25.765Z,17.37
2023-09-27T21:13:58.295Z,17.32
2023-09-27T21:16:26.710Z,17.34
2023-09-27T21:18:54.531Z,17.29
2023-09-27T21:21:22.745Z,17.25
2023-09-27T21:23:49.452Z,17.23
2023-09-27T21:26:16.025Z,17.19
2023-09-27T21:28:42.632Z,17.23
2023-09-27T21:31:10.741Z,17.21
2023-09-27T21:33:38.379Z,17.08
2023-09-27T21:36:05.261Z,17.04
2023-09-27T21:38:32.064Z,17.03
2023-09-27T21:40:58.997Z,16.96
2023-09-27T21:43:26.847Z,17.08
2023-09-27T21:45:53.673Z,17.09
2023-09-27T21:48:22.171Z,16.97
2023-09-27T21:50:48.685Z,16.94
2023-09-27T21:53:15.328Z,16.74
2023-09-27T21:55:41.871Z,16.80
2023-09-27T21:58:08.913Z,16.85
2023-09-27T22:00:35.939Z,16.90
2023-09-27T22:03:04.258Z,16.89
2023-09-27T22:05:33.547Z,16.99
2023-09-27T22:08:01.180Z,16.98
2023-09-27T22:10:36.041Z,16.96
2023-09-27T22:13:22.304Z,17.01
2023-09-27T22:15:54.814Z,16.96
2023-09-27T22:18:22.254Z,16.67
2023-09-27T22:20:49.469Z,16.87
2023-09-27T22:23:34.748Z,16.97
2023-09-27T22:26:06.236Z,16.96
2023-09-27T22:28:32.793Z,17.01
2023-09-27T22:31:02.293Z,16.93
2023-09-27T22:33:31.078Z,16.89
2023-09-27T22:35:58.342Z,16.87
2023-09-27T22:38:24.921Z,16.89
2023-09-27T22:40:51.609Z,16.79
2023-09-27T22:43:18.419Z,16.86
2023-09-27T22:45:48.948Z,16.84
2023-09-27T22:48:20.808Z,16.88
2023-09-27T22:50:50.214Z,16.81
2023-09-27T22:53:20.754Z,16.77
2023-09-27T22:55:51.488Z,16.76
2023-09-27T22:58:19.535Z,16.66
2023-09-27T23:00:57.972Z,16.66
2023-09-27T23:03:27.973Z,16.65
2023-09-27T23:05:57.775Z,16.60
2023-09-27T23:08:28.385Z,16.60
2023-09-27T23:10:59.409Z,16.54
2023-09-27T23:13:30.810Z,16.49
2023-09-27T23:15:57.853Z,16.35
2023-09-27T23:18:28.349Z,16.30
2023-09-27T23:20:56.339Z,16.29
2023-09-27T23:23:24.296Z,16.29
2023-09-27T23:25:55.240Z,16.23
2023-09-27T23:28:41.228Z,16.17
2023-09-27T23:31:11.698Z,16.20
2023-09-27T23:33:44.394Z,16.06
2023-09-27T23:36:24.436Z,16.14
2023-09-27T23:38:58.734Z,16.17
2023-09-27T23:41:30.694Z,16.15
2023-09-27T23:44:01.544Z,16.17
2023-09-27T23:46:28.627Z,16.03
2023-09-27T23:48:55.285Z,15.87
2023-09-27T23:51:22.058Z,15.98
2023-09-27T23:53:48.665Z,16.00
2023-09-27T23:56:16.675Z,16.03
2023-09-27T23:58:44.731Z,16.05
